Time;durP1;ratioP1;P1;durP2;ratioP2;P2;SDS_P1;SDS_P2;PMS_P1;PMS_P2;Temp;Humidity;BMP_temperature;BMP_pressure;BME280_temperature;BME280_humidity;BME280_pressure;Samples;Min_cycle;Max_cycle;Signal;HPM_P1;HPM_P2
2024/02/18 00:01:04;;;;;;;5.85;4.85;;;13.80;82.60;;;;;;4954278;28;20066;-84
2024/02/18 00:03:30;;;;;;;5.63;4.45;;;13.80;82.60;;;;;;4957361;28;20045;-82
2024/02/18 00:05:58;;;;;;;5.35;4.60;;;13.80;82.60;;;;;;4960511;28;20039;-95
2024/02/18 00:08:23;;;;;;;5.63;4.57;;;13.80;82.60;;;;;;4964679;28;20034;-89
2024/02/18 00:10:49;;;;;;;5.78;4.65;;;13.80;82.60;;;;;;4963042;28;20501;-83
2024/02/18 00:13:15;;;;;;;5.68;4.30;;;13.80;82.60;;;;;;4960472;28;20018;-91
2024/02/18 00:15:41;;;;;;;5.80;4.60;;;13.80;82.60;;;;;;4962378;28;20026;-81
2024/02/18 00:18:16;;;;;;;5.32;4.03;;;13.80;82.60;;;;;;4976950;28;20052;-93
2024/02/18 00:20:43;;;;;;;5.13;4.22;;;13.70;82.60;;;;;;4963312;28;20031;-81
2024/02/18 00:23:09;;;;;;;6.05;4.35;;;13.80;82.60;;;;;;4960409;28;20058;-83
2024/02/18 00:25:47;;;;;;;4.95;4.00;;;13.70;82.60;;;;;;4962335;28;20078;-92
2024/02/18 00:28:12;;;;;;;5.70;4.10;;;13.70;82.60;;;;;;4969007;28;20430;-82
2024/02/18 00:30:39;;;;;;;5.45;3.92;;;13.80;82.60;;;;;;4959211;28;20394;-94
2024/02/18 00:33:35;;;;;;;5.53;4.30;;;13.70;82.60;;;;;;4976306;28;20129;-94
2024/02/18 00:36:02;;;;;;;5.68;4.10;;;13.70;82.60;;;;;;4897611;29;20088;-82
2024/02/18 00:38:27;;;;;;;5.18;3.90;;;13.70;82.60;;;;;;4905600;29;20062;-89
2024/02/18 00:40:54;;;;;;;6.00;3.88;;;13.70;82.60;;;;;;4921571;29;20028;-83
2024/02/18 00:43:20;;;;;;;5.32;4.05;;;13.70;82.60;;;;;;4917357;29;20122;-89
2024/02/18 00:45:46;;;;;;;5.47;3.90;;;13.70;82.60;;;;;;4911390;29;20186;-82
2024/02/18 00:48:20;;;;;;;6.03;4.25;;;13.70;82.60;;;;;;4917250;29;20043;-94
2024/02/18 00:50:47;;;;;;;5.28;4.07;;;13.70;82.60;;;;;;4920676;29;20074;-82
2024/02/18 00:53:13;;;;;;;5.45;4.45;;;13.70;82.60;;;;;;4911688;29;20058;-83
2024/02/18 00:55:43;;;;;;;5.20;4.10;;;13.70;82.60;;;;;;4910201;29;20042;-83
2024/02/18 00:58:12;;;;;;;4.90;3.80;;;13.70;82.60;;;;;;4903495;29;20039;-93
2024/02/18 01:00:40;;;;;;;5.07;3.90;;;13.70;82.60;;;;;;4905223;29;20043;-83
2024/02/18 01:03:07;;;;;;;5.35;3.95;;;13.70;82.60;;;;;;4913982;29;20183;-80
2024/02/18 01:05:33;;;;;;;5.20;3.90;;;13.70;82.70;;;;;;4915500;29;20144;-83
2024/02/18 01:08:18;;;;;;;5.28;3.90;;;13.70;83.30;;;;;;4952534;28;20053;-92
2024/02/18 01:10:46;;;;;;;4.50;3.50;;;13.60;82.60;;;;;;4976377;28;20057;-83
2024/02/18 01:13:28;;;;;;;5.13;3.90;;;13.60;82.60;;;;;;4949928;28;20023;-92
2024/02/18 01:15:55;;;;;;;4.45;3.38;;;13.60;82.60;;;;;;4973435;28;20394;-81
2024/02/18 01:18:50;;;;;;;4.55;3.55;;;13.60;82.60;;;;;;4951033;28;20027;-93
2024/02/18 01:21:21;;;;;;;4.85;3.95;;;13.60;82.70;;;;;;4935641;28;20317;-81
2024/02/18 01:23:47;;;;;;;4.95;3.65;;;13.60;82.60;;;;;;4924821;29;20464;-83
2024/02/18 01:26:13;;;;;;;5.00;3.78;;;13.60;82.60;;;;;;4930923;28;20050;-83
2024/02/18 01:28:41;;;;;;;5.18;3.63;;;13.60;82.60;;;;;;4924508;29;20095;-83
2024/02/18 01:31:36;;;;;;;5.85;3.80;;;13.60;82.70;;;;;;4921778;29;20078;-92
2024/02/18 01:34:02;;;;;;;;;;;13.60;82.70;;;;;;4895087;29;20131;-81
2024/02/18 01:36:28;;;;;;;3.58;2.97;;;13.50;82.60;;;;;;4882090;29;19946;-89
2024/02/18 01:38:54;;;;;;;3.78;3.10;;;13.50;82.60;;;;;;4888370;29;20044;-83
2024/02/18 01:41:26;;;;;;;4.90;3.40;;;13.50;82.60;;;;;;4895354;29;20497;-93
2024/02/18 01:43:57;;;;;;;4.67;3.80;;;13.50;82.70;;;;;;4895537;29;20031;-93
2024/02/18 01:46:27;;;;;;;5.20;3.28;;;13.50;82.60;;;;;;4872662;29;20033;-89
2024/02/18 01:48:54;;;;;;;3.40;3.00;;;13.50;82.60;;;;;;4898477;29;20213;-89
2024/02/18 01:51:22;;;;;;;4.15;3.40;;;13.50;82.70;;;;;;4885711;29;20095;-83
2024/02/18 01:53:49;;;;;;;4.20;3.40;;;13.50;82.70;;;;;;4933538;29;20126;-82
2024/02/18 01:56:18;;;;;;;4.95;3.00;;;13.50;82.70;;;;;;4954109;28;20118;-84
2024/02/18 01:58:44;;;;;;;3.85;3.20;;;13.50;82.60;;;;;;4932595;28;20500;-89
2024/02/18 02:01:11;;;;;;;4.25;3.10;;;13.50;82.70;;;;;;4938555;28;20104;-80
2024/02/18 02:03:39;;;;;;;3.92;3.15;;;13.40;82.60;;;;;;4950210;29;20060;-89
2024/02/18 02:06:07;;;;;;;4.20;3.10;;;13.50;82.60;;;;;;4973643;28;20120;-83
2024/02/18 02:08:33;;;;;;;4.40;3.40;;;13.50;82.60;;;;;;4956099;28;20117;-81
2024/02/18 02:11:00;;;;;;;5.72;4.18;;;13.50;82.60;;;;;;4974622;28;20110;-83
2024/02/18 02:13:25;;;;;;;3.85;3.13;;;13.40;82.60;;;;;;4957419;28;20491;-81
2024/02/18 02:15:51;;;;;;;4.70;3.33;;;13.40;82.60;;;;;;4958343;28;20049;-82
2024/02/18 02:18:56;;;;;;;4.75;3.28;;;13.40;82.60;;;;;;4974864;28;20031;-94
2024/02/18 02:21:21;;;;;;;3.90;2.85;;;13.50;82.70;;;;;;4950485;28;20108;-81
2024/02/18 02:23:47;;;;;;;4.75;3.55;;;13.40;82.60;;;;;;4958476;28;20069;-83
2024/02/18 02:26:14;;;;;;;4.22;3.13;;;13.40;82.60;;;;;;4973374;28;20058;-81
2024/02/18 02:28:46;;;;;;;4.53;3.08;;;13.40;82.60;;;;;;4976828;28;20036;-89
2024/02/18 02:31:13;;;;;;;3.50;2.90;;;13.40;82.60;;;;;;4958024;28;20039;-81
2024/02/18 02:33:40;;;;;;;5.03;3.25;;;13.40;82.60;;;;;;4959097;28;20030;-89
2024/02/18 02:36:06;;;;;;;4.90;2.92;;;13.40;82.60;;;;;;4955517;28;20495;-81
2024/02/18 02:38:35;;;;;;;4.95;3.38;;;13.40;82.60;;;;;;4992530;28;20397;-83
2024/02/18 02:41:02;;;;;;;4.05;3.13;;;13.40;82.60;;;;;;4953246;28;20333;-90
2024/02/18 02:43:37;;;;;;;4.65;3.05;;;13.40;82.60;;;;;;4961822;28;20081;-92
2024/02/18 02:46:03;;;;;;;5.00;3.20;;;13.40;82.60;;;;;;4957140;28;20038;-81
2024/02/18 02:48:39;;;;;;;3.72;3.05;;;13.40;82.60;;;;;;4974134;28;20042;-93
2024/02/18 02:51:07;;;;;;;3.65;3.00;;;13.40;82.60;;;;;;4988664;28;20039;-82
2024/02/18 02:53:32;;;;;;;4.53;3.10;;;13.40;82.60;;;;;;4956864;28;20034;-81
2024/02/18 02:55:59;;;;;;;4.70;2.97;;;13.40;82.60;;;;;;4973187;28;20077;-89
2024/02/18 02:58:35;;;;;;;4.20;2.92;;;13.40;82.60;;;;;;4955347;28;20054;-92
2024/02/18 03:01:05;;;;;;;4.53;3.15;;;13.40;82.60;;;;;;4958061;28;20062;-92
2024/02/18 03:03:40;;;;;;;4.45;2.90;;;13.40;82.60;;;;;;4956114;28;20034;-82
2024/02/18 03:06:13;;;;;;;4.00;2.90;;;13.40;82.60;;;;;;4958738;28;20050;-92
2024/02/18 03:09:22;;;;;;;4.35;3.10;;;13.40;82.60;;;;;;4957122;28;20097;-93
2024/02/18 03:12:51;;;;;;;4.13;2.83;;;13.40;82.70;;;;;;4890681;29;20112;-93
2024/02/18 03:15:27;;;;;;;3.97;2.92;;;13.40;82.70;;;;;;4876440;29;20044;-92
2024/02/18 03:17:53;;;;;;;3.53;2.78;;;13.40;82.70;;;;;;4890471;29;20089;-89
2024/02/18 03:20:19;;;;;;;3.42;2.80;;;13.30;82.70;;;;;;4894922;29;20033;-81
2024/02/18 03:22:46;;;;;;;4.22;2.97;;;13.40;82.80;;;;;;4873389;29;20088;-88
2024/02/18 03:25:12;;;;;;;5.15;3.13;;;13.30;82.70;;;;;;4879509;29;20024;-82
2024/02/18 03:27:37;;;;;;;4.22;3.15;;;13.30;82.70;;;;;;4879249;29;20037;-90
2024/02/18 03:30:03;;;;;;;3.75;2.80;;;13.30;82.70;;;;;;4896723;29;20060;-81
2024/02/18 03:32:35;;;;;;;4.45;3.00;;;13.40;82.80;;;;;;4894660;29;20036;-93
2024/02/18 03:35:03;;;;;;;3.72;3.10;;;13.30;82.70;;;;;;4865553;29;20512;-83
2024/02/18 03:37:33;;;;;;;4.50;3.15;;;13.40;82.80;;;;;;4894212;29;20068;-92
2024/02/18 03:40:12;;;;;;;5.47;2.90;;;13.40;82.70;;;;;;4892576;29;20036;-83
2024/02/18 03:42:48;;;;;;;3.92;3.13;;;13.30;82.70;;;;;;4906943;28;20062;-92
2024/02/18 03:45:22;;;;;;;5.03;3.05;;;13.30;82.80;;;;;;4970901;28;20184;-88
2024/02/18 03:47:48;;;;;;;4.43;3.10;;;13.30;82.70;;;;;;4974504;28;20189;-89
2024/02/18 03:50:14;;;;;;;3.80;2.92;;;13.30;82.70;;;;;;4958138;28;20033;-83
2024/02/18 03:52:43;;;;;;;4.97;3.05;;;13.40;82.80;;;;;;4956693;28;20041;-82
2024/02/18 03:55:13;;;;;;;4.18;3.00;;;13.40;82.80;;;;;;4958924;28;20034;-81
2024/02/18 03:57:40;;;;;;;4.05;3.10;;;13.40;82.80;;;;;;4968088;28;20034;-88
2024/02/18 04:00:07;;;;;;;4.15;2.70;;;13.30;82.70;;;;;;4969799;28;20034;-88
2024/02/18 04:02:35;;;;;;;5.53;2.90;;;13.40;82.80;;;;;;4970797;28;20036;-82
2024/02/18 04:05:03;;;;;;;4.07;2.92;;;13.30;82.70;;;;;;4973582;28;20487;-82
2024/02/18 04:07:34;;;;;;;4.18;2.95;;;13.40;82.80;;;;;;4957486;28;20063;-93
2024/02/18 04:10:01;;;;;;;4.63;3.50;;;13.30;82.70;;;;;;4969124;28;20050;-82
2024/02/18 04:12:27;;;;;;;4.85;3.13;;;13.40;82.80;;;;;;4957330;28;20058;-83
2024/02/18 04:14:53;;;;;;;3.90;2.83;;;13.30;82.70;;;;;;4956353;28;20069;-83
2024/02/18 04:17:20;;;;;;;3.70;2.88;;;13.30;82.80;;;;;;4958409;28;20102;-83
2024/02/18 04:19:46;;;;;;;4.15;2.97;;;13.30;82.80;;;;;;4957466;28;20439;-89
2024/02/18 04:22:12;;;;;;;4.22;2.83;;;13.40;82.80;;;;;;4975845;28;20299;-89
2024/02/18 04:24:41;;;;;;;3.95;2.72;;;13.30;82.70;;;;;;4952051;28;20037;-88
2024/02/18 04:27:08;;;;;;;3.60;2.72;;;13.40;82.80;;;;;;4957684;28;20040;-83
2024/02/18 04:29:38;;;;;;;3.53;2.67;;;13.40;82.80;;;;;;4973995;28;20105;-89
2024/02/18 04:32:05;;;;;;;5.07;2.92;;;13.40;82.80;;;;;;4953594;28;20027;-83
2024/02/18 04:34:32;;;;;;;4.20;3.20;;;13.30;82.80;;;;;;4972966;28;20035;-89
2024/02/18 04:36:59;;;;;;;3.47;2.70;;;13.40;82.80;;;;;;4957910;28;20065;-81
2024/02/18 04:39:25;;;;;;;4.05;2.95;;;13.30;82.80;;;;;;4972634;28;20046;-81
2024/02/18 04:41:50;;;;;;;4.20;3.00;;;13.30;82.70;;;;;;4957449;28;20494;-83
2024/02/18 04:44:16;;;;;;;4.15;3.00;;;13.30;82.80;;;;;;4956838;28;20046;-89
2024/02/18 04:46:42;;;;;;;3.30;2.63;;;13.30;82.70;;;;;;4955370;28;20038;-89
2024/02/18 04:49:15;;;;;;;3.78;2.80;;;13.30;82.70;;;;;;4956468;28;20023;-93
2024/02/18 04:51:41;;;;;;;3.60;2.70;;;13.30;82.70;;;;;;4971742;28;20039;-90
2024/02/18 04:54:07;;;;;;;3.63;2.83;;;13.30;82.70;;;;;;4955966;28;20034;-90
2024/02/18 04:56:32;;;;;;;3.40;2.70;;;13.30;82.70;;;;;;4972561;28;20037;-83
2024/02/18 04:58:58;;;;;;;3.80;2.80;;;13.30;82.70;;;;;;4973869;28;20061;-83
2024/02/18 05:01:36;;;;;;;4.15;3.03;;;13.30;82.70;;;;;;4960188;28;20022;-92
2024/02/18 05:04:02;;;;;;;3.95;2.53;;;13.30;82.70;;;;;;4962122;28;20042;-83
2024/02/18 05:06:28;;;;;;;5.68;2.90;;;13.30;82.70;;;;;;4959035;28;20050;-90
2024/02/18 05:08:54;;;;;;;5.20;3.20;;;13.30;82.70;;;;;;4976607;28;20037;-90
2024/02/18 05:11:21;;;;;;;4.22;2.80;;;13.30;82.80;;;;;;4959490;28;20029;-83
2024/02/18 05:13:56;;;;;;;3.78;2.80;;;13.30;82.70;;;;;;4958670;28;20121;-93
2024/02/18 05:16:22;;;;;;;4.63;3.17;;;13.30;82.70;;;;;;4956705;28;20431;-90
2024/02/18 05:18:48;;;;;;;4.82;2.80;;;13.30;82.70;;;;;;4956867;28;20057;-90
2024/02/18 05:21:14;;;;;;;3.40;2.50;;;13.30;82.70;;;;;;4966135;28;20022;-90
2024/02/18 05:23:40;;;;;;;3.72;2.80;;;13.30;82.90;;;;;;4953885;28;20041;-90
2024/02/18 05:26:43;;;;;;;4.05;2.85;;;13.30;82.70;;;;;;4989209;28;20041;-93
2024/02/18 05:29:18;;;;;;;4.07;2.92;;;13.30;82.80;;;;;;4937883;28;20572;-91
2024/02/18 05:31:43;;;;;;;4.22;3.08;;;13.20;82.70;;;;;;4965109;28;20035;-91
2024/02/18 05:34:09;;;;;;;4.07;2.75;;;13.20;83.40;;;;;;4964552;28;20084;-82
2024/02/18 05:36:35;;;;;;;3.65;2.72;;;13.30;82.80;;;;;;4960737;28;20038;-90
2024/02/18 05:39:01;;;;;;;4.25;3.00;;;13.30;82.80;;;;;;4958196;28;20478;-83
2024/02/18 05:41:29;;;;;;;3.70;2.80;;;13.20;82.70;;;;;;4957727;28;20505;-80
2024/02/18 05:44:33;;;;;;;4.32;2.97;;;13.30;82.80;;;;;;4974847;28;20461;-90
2024/02/18 05:47:26;;;;;;;3.63;2.83;;;13.30;82.80;;;;;;4991606;28;20135;-94
2024/02/18 05:49:52;;;;;;;4.00;2.75;;;13.30;82.80;;;;;;4973970;28;20034;-82
2024/02/18 05:52:18;;;;;;;3.95;2.83;;;13.20;82.80;;;;;;4974904;28;20022;-81
2024/02/18 05:54:44;;;;;;;3.85;2.88;;;13.20;82.80;;;;;;4960215;28;20035;-81
2024/02/18 05:57:10;;;;;;;3.28;2.83;;;13.20;82.80;;;;;;4960916;28;20033;-81
2024/02/18 06:00:14;;;;;;;3.42;2.70;;;13.20;82.80;;;;;;4975966;28;20034;-93
2024/02/18 06:03:20;;;;;;;3.42;2.70;;;13.20;82.80;;;;;;4937775;28;20066;-84
2024/02/18 06:05:46;;;;;;;4.15;3.22;;;13.20;82.80;;;;;;4926002;29;20072;-81
2024/02/18 06:08:14;;;;;;;4.45;2.72;;;13.20;82.80;;;;;;4916485;29;20053;-93
2024/02/18 06:10:41;;;;;;;4.78;2.83;;;13.20;82.80;;;;;;4915244;29;20031;-90
2024/02/18 06:13:16;;;;;;;4.40;3.00;;;13.20;82.80;;;;;;4932455;29;20162;-93
2024/02/18 06:15:56;;;;;;;;;;;13.20;83.40;;;;;;4930600;29;20131;-94
2024/02/18 06:18:22;;;;;;;3.92;2.58;;;13.10;82.70;;;;;;4926071;29;19917;-81
2024/02/18 06:20:48;;;;;;;3.30;2.63;;;13.20;82.80;;;;;;4929417;29;20031;-80
2024/02/18 06:24:01;;;;;;;4.30;3.00;;;13.10;82.80;;;;;;4930528;29;20036;-93
2024/02/18 06:26:47;;;;;;;3.38;2.67;;;13.20;82.90;;;;;;4894858;29;20063;-83
2024/02/18 06:29:13;;;;;;;3.90;2.90;;;13.10;82.80;;;;;;4884831;29;20039;-83
2024/02/18 06:31:39;;;;;;;4.53;2.95;;;13.10;82.80;;;;;;4882342;29;20036;-81
2024/02/18 06:34:04;;;;;;;5.18;3.00;;;13.10;82.80;;;;;;4883334;29;20047;-80
2024/02/18 06:36:35;;;;;;;4.32;3.10;;;13.10;82.80;;;;;;4883494;29;20040;-81
2024/02/18 06:39:02;;;;;;;4.22;3.00;;;13.10;82.80;;;;;;4896613;29;20028;-91
2024/02/18 06:41:31;;;;;;;3.60;2.90;;;13.10;82.80;;;;;;4882840;29;20055;-84
2024/02/18 06:43:57;;;;;;;4.50;3.00;;;13.10;82.80;;;;;;4893955;29;20063;-83
2024/02/18 06:46:23;;;;;;;4.53;3.20;;;13.10;82.80;;;;;;4897775;29;20040;-81
2024/02/18 06:48:51;;;;;;;5.28;3.00;;;13.10;82.80;;;;;;4880782;29;20160;-81
2024/02/18 06:51:17;;;;;;;5.07;3.10;;;13.10;82.80;;;;;;4880706;29;20032;-81
2024/02/18 06:53:45;;;;;;;4.47;3.00;;;13.10;82.80;;;;;;4880334;29;20437;-83
2024/02/18 06:56:10;;;;;;;3.47;2.90;;;13.10;82.80;;;;;;4908516;29;20031;-91
2024/02/18 06:59:20;;;;;;;4.13;2.92;;;13.10;82.80;;;;;;4899001;29;20036;-93
2024/02/18 07:01:47;;;;;;;3.83;2.92;;;13.10;82.80;;;;;;4929823;29;20039;-83
2024/02/18 07:04:12;;;;;;;4.97;3.33;;;13.10;82.80;;;;;;4902677;29;20094;-81
2024/02/18 07:06:38;;;;;;;5.05;3.35;;;13.10;82.80;;;;;;4962218;28;20039;-90
2024/02/18 07:09:07;;;;;;;4.45;3.22;;;13.10;82.80;;;;;;4948713;28;20031;-81
2024/02/18 07:11:33;;;;;;;4.40;2.92;;;13.10;82.80;;;;;;4968875;28;20030;-90
2024/02/18 07:14:26;;;;;;;4.32;3.08;;;13.10;82.80;;;;;;4969941;28;20038;-92
2024/02/18 07:17:00;;;;;;;4.60;3.03;;;13.10;82.80;;;;;;4966366;28;20518;-82
2024/02/18 07:19:26;;;;;;;3.83;2.88;;;13.10;82.80;;;;;;4951280;28;20622;-92
2024/02/18 07:21:51;;;;;;;3.67;2.72;;;13.10;82.80;;;;;;4954624;28;20054;-82
2024/02/18 07:24:17;;;;;;;5.70;3.10;;;13.00;82.80;;;;;;4954387;28;20042;-83
2024/02/18 07:26:43;;;;;;;3.40;2.65;;;13.00;82.80;;;;;;4971487;28;20027;-81
2024/02/18 07:29:27;;;;;;;3.90;2.80;;;13.00;82.70;;;;;;4951668;28;20043;-92
2024/02/18 07:31:53;;;;;;;4.75;3.40;;;13.00;82.80;;;;;;4968777;28;20034;-91
2024/02/18 07:34:19;;;;;;;4.57;3.10;;;13.00;82.80;;;;;;4967237;28;20027;-80
2024/02/18 07:36:46;;;;;;;3.35;2.78;;;13.00;82.80;;;;;;4952294;28;20115;-91
2024/02/18 07:39:12;;;;;;;4.38;2.95;;;13.00;82.80;;;;;;4963741;28;20502;-81
2024/02/18 07:41:39;;;;;;;4.15;2.80;;;13.00;82.80;;;;;;4953430;28;20403;-81
2024/02/18 07:44:05;;;;;;;3.40;2.58;;;13.00;82.80;;;;;;4953956;28;20027;-91
2024/02/18 07:46:38;;;;;;;3.85;2.78;;;13.00;82.80;;;;;;4967580;28;20038;-90
2024/02/18 07:49:28;;;;;;;5.00;2.58;;;13.00;82.80;;;;;;4971794;28;20031;-90
2024/02/18 07:51:56;;;;;;;3.85;2.80;;;13.00;83.40;;;;;;4968079;28;20361;-81
2024/02/18 07:54:21;;;;;;;4.03;3.05;;;13.00;82.80;;;;;;4967513;28;20049;-91
2024/02/18 07:56:48;;;;;;;4.13;2.80;;;13.00;82.80;;;;;;4952038;28;20035;-82
2024/02/18 07:59:16;;;;;;;3.92;2.58;;;13.00;82.80;;;;;;4959490;28;20434;-82
2024/02/18 08:02:07;;;;;;;3.58;2.65;;;13.00;82.80;;;;;;4958371;28;20031;-91
2024/02/18 08:04:34;;;;;;;3.63;2.47;;;13.00;82.80;;;;;;4926545;28;20567;-92
2024/02/18 08:07:00;;;;;;;3.92;2.85;;;13.00;82.80;;;;;;4959619;28;20142;-89
2024/02/18 08:09:27;;;;;;;3.97;2.80;;;13.00;82.80;;;;;;4935151;28;20118;-91
2024/02/18 08:11:53;;;;;;;4.60;2.85;;;13.00;82.80;;;;;;4935900;28;20052;-81
2024/02/18 08:14:18;;;;;;;4.20;2.90;;;12.90;82.80;;;;;;4945793;28;20043;-82
2024/02/18 08:16:44;;;;;;;3.33;2.70;;;12.90;82.70;;;;;;4937205;28;20038;-83
2024/02/18 08:19:10;;;;;;;3.90;2.97;;;12.90;82.70;;;;;;4942909;28;20050;-83
2024/02/18 08:21:58;;;;;;;3.92;2.80;;;12.90;82.70;;;;;;4946231;28;20491;-92
2024/02/18 08:24:24;;;;;;;4.03;2.72;;;13.00;82.80;;;;;;4953080;28;20035;-89
2024/02/18 08:26:50;;;;;;;4.35;2.85;;;12.90;82.70;;;;;;4947544;28;20141;-83
2024/02/18 08:29:16;;;;;;;4.07;2.70;;;12.90;82.70;;;;;;4952274;28;20035;-81
2024/02/18 08:31:41;;;;;;;4.45;2.90;;;12.90;82.70;;;;;;4930752;28;20031;-80
2024/02/18 08:34:08;;;;;;;3.13;2.72;;;12.90;82.70;;;;;;4949872;28;20058;-90
2024/02/18 08:36:34;;;;;;;5.60;2.83;;;12.90;82.70;;;;;;4953780;28;20043;-90
2024/02/18 08:39:00;;;;;;;4.45;2.90;;;12.90;82.70;;;;;;4956856;28;20034;-89
2024/02/18 08:41:26;;;;;;;3.35;2.58;;;12.90;82.70;;;;;;4941902;28;20034;-92
2024/02/18 08:43:53;;;;;;;4.03;2.83;;;12.90;82.70;;;;;;4943213;28;20034;-90
2024/02/18 08:46:19;;;;;;;3.42;2.75;;;12.90;82.70;;;;;;4937904;28;20121;-93
2024/02/18 08:48:45;;;;;;;4.25;3.00;;;12.90;82.70;;;;;;4959397;28;20034;-94
2024/02/18 08:51:10;;;;;;;4.80;3.10;;;12.90;82.70;;;;;;4943527;28;20039;-83
2024/02/18 08:53:38;;;;;;;4.15;2.95;;;12.90;82.70;;;;;;4956746;28;20034;-92
2024/02/18 08:56:13;;;;;;;3.53;2.90;;;12.90;82.70;;;;;;4958106;28;20066;-90
2024/02/18 08:58:40;;;;;;;3.70;2.78;;;12.90;82.70;;;;;;4956058;28;20367;-93
2024/02/18 09:01:06;;;;;;;3.47;2.72;;;12.90;83.30;;;;;;4981383;28;20036;-93
2024/02/18 09:03:32;;;;;;;4.00;2.92;;;12.90;82.70;;;;;;4952493;28;20031;-81
2024/02/18 09:05:58;;;;;;;5.40;3.00;;;12.90;82.70;;;;;;4970569;28;20417;-80
2024/02/18 09:08:25;;;;;;;3.95;2.90;;;12.90;82.70;;;;;;4966367;28;20368;-90
2024/02/18 09:10:54;;;;;;;4.35;3.28;;;12.80;82.70;;;;;;4951482;28;20125;-92
2024/02/18 09:13:23;;;;;;;3.28;2.60;;;12.90;82.70;;;;;;4970486;28;20487;-81
2024/02/18 09:15:49;;;;;;;4.65;2.95;;;12.90;82.70;;;;;;4956508;28;20030;-92
2024/02/18 09:18:18;;;;;;;5.22;3.13;;;12.90;82.70;;;;;;4973582;28;20030;-93
2024/02/18 09:20:44;;;;;;;4.07;2.80;;;12.80;82.70;;;;;;4954118;28;20023;-91
2024/02/18 09:23:10;;;;;;;4.85;2.97;;;12.90;82.70;;;;;;4955517;28;20063;-83
2024/02/18 09:25:39;;;;;;;4.60;3.08;;;12.90;82.80;;;;;;4969084;28;20062;-93
2024/02/18 09:28:06;;;;;;;4.32;2.88;;;12.90;82.70;;;;;;4973617;28;20041;-91
2024/02/18 09:30:31;;;;;;;4.93;3.30;;;12.80;82.70;;;;;;4971804;28;20023;-81
2024/02/18 09:32:57;;;;;;;4.68;3.05;;;12.80;82.70;;;;;;4970837;28;20026;-82
2024/02/18 09:35:23;;;;;;;4.75;2.92;;;12.90;82.80;;;;;;4948299;28;20030;-82
2024/02/18 09:37:49;;;;;;;3.92;2.95;;;12.90;82.70;;;;;;4952125;28;20460;-91
2024/02/18 09:40:15;;;;;;;4.72;2.88;;;12.90;82.70;;;;;;4951669;28;20031;-82
2024/02/18 09:42:42;;;;;;;6.15;3.10;;;12.80;82.70;;;;;;4955563;28;20026;-82
2024/02/18 09:45:11;;;;;;;4.20;3.10;;;12.80;82.70;;;;;;4968552;28;20031;-82
2024/02/18 09:47:42;;;;;;;4.15;3.05;;;12.80;82.70;;;;;;4955866;28;20035;-82
2024/02/18 09:50:11;;;;;;;3.88;2.90;;;12.80;83.30;;;;;;4968657;28;20455;-82
2024/02/18 09:52:41;;;;;;;4.15;3.00;;;12.80;83.40;;;;;;4969642;28;20030;-89
2024/02/18 09:55:09;;;;;;;4.55;3.10;;;12.80;82.80;;;;;;4970734;28;20482;-82
2024/02/18 09:57:38;;;;;;;3.85;2.40;;;12.80;82.80;;;;;;4956977;28;20035;-81
2024/02/18 10:00:08;;;;;;;3.85;2.78;;;12.80;82.80;;;;;;4955125;28;20454;-92
2024/02/18 10:02:35;;;;;;;5.40;3.17;;;12.80;82.80;;;;;;4955464;28;20039;-82
2024/02/18 10:05:02;;;;;;;3.55;2.90;;;12.80;82.80;;;;;;4953493;28;20030;-82
2024/02/18 10:07:28;;;;;;;5.03;3.15;;;12.80;82.80;;;;;;4957310;28;20466;-81
2024/02/18 10:09:54;;;;;;;3.67;2.88;;;12.80;82.80;;;;;;4953781;28;20026;-82
2024/02/18 10:12:20;;;;;;;3.45;2.90;;;12.80;82.80;;;;;;4960567;28;20555;-91
2024/02/18 10:15:01;;;;;;;4.20;2.83;;;12.80;82.80;;;;;;4955570;28;20459;-93
2024/02/18 10:17:28;;;;;;;4.18;2.95;;;12.80;82.80;;;;;;4954347;28;20049;-82
2024/02/18 10:19:54;;;;;;;3.67;2.80;;;12.80;82.80;;;;;;4970459;28;20399;-81
2024/02/18 10:22:26;;;;;;;4.90;2.80;;;12.80;82.80;;;;;;4952125;28;20035;-80
2024/02/18 10:24:53;;;;;;;3.70;3.10;;;12.80;82.80;;;;;;4967174;28;20027;-81
2024/02/18 10:27:18;;;;;;;4.47;3.03;;;12.80;82.80;;;;;;4959781;28;20117;-81
2024/02/18 10:29:48;;;;;;;4.82;3.30;;;12.80;82.80;;;;;;4952427;28;20462;-81
2024/02/18 10:32:18;;;;;;;3.72;2.90;;;12.80;82.90;;;;;;4948281;28;20023;-81
2024/02/18 10:34:44;;;;;;;3.95;3.35;;;12.80;82.90;;;;;;4967364;28;20041;-81
2024/02/18 10:37:28;;;;;;;3.25;2.85;;;12.80;82.90;;;;;;4961259;28;20029;-91
2024/02/18 10:39:59;;;;;;;4.28;2.97;;;12.80;82.90;;;;;;4943797;28;20023;-80
2024/02/18 10:42:28;;;;;;;3.83;2.58;;;12.80;83.50;;;;;;4970712;28;20399;-79
2024/02/18 10:44:57;;;;;;;4.95;2.75;;;12.80;82.90;;;;;;4951520;28;20038;-91
2024/02/18 10:47:26;;;;;;;3.90;2.88;;;12.80;82.90;;;;;;4957821;28;20391;-81
2024/02/18 10:49:59;;;;;;;3.63;2.72;;;12.80;82.90;;;;;;4956280;28;20034;-91
2024/02/18 10:52:25;;;;;;;3.40;2.58;;;12.80;82.90;;;;;;4957761;28;20034;-88
2024/02/18 10:55:17;;;;;;;4.00;3.08;;;12.80;82.90;;;;;;4970722;28;20053;-83
2024/02/18 10:57:48;;;;;;;3.72;2.63;;;12.80;82.90;;;;;;4951944;28;20419;-95
2024/02/18 11:00:17;;;;;;;4.15;2.90;;;12.80;82.90;;;;;;4953979;28;20066;-79
2024/02/18 11:03:23;;;;;;;3.70;2.72;;;12.80;82.90;;;;;;4962745;28;20486;-81
2024/02/18 11:05:50;;;;;;;;;;;12.80;82.90;;;;;;4959948;28;20528;-80
2024/02/18 11:08:16;;;;;;;3.17;2.40;;;12.70;82.80;;;;;;4952213;28;19920;-80
2024/02/18 11:10:44;;;;;;;4.82;2.63;;;12.80;82.80;;;;;;4961729;28;20027;-87
2024/02/18 11:13:12;;;;;;;3.15;2.70;;;12.70;82.80;;;;;;4949918;28;20085;-92
2024/02/18 11:15:37;;;;;;;5.40;2.80;;;12.80;82.90;;;;;;4955564;28;20061;-93
2024/02/18 11:18:05;;;;;;;3.40;2.40;;;12.80;82.90;;;;;;4964377;28;20153;-93
2024/02/18 11:20:32;;;;;;;4.88;2.70;;;12.80;82.90;;;;;;4969430;28;20027;-82
2024/02/18 11:22:59;;;;;;;3.85;2.60;;;12.80;83.50;;;;;;4955488;28;20094;-93
2024/02/18 11:25:25;;;;;;;3.67;2.50;;;12.80;82.80;;;;;;4967991;28;20042;-92
2024/02/18 11:27:51;;;;;;;3.45;2.58;;;12.80;82.80;;;;;;4951784;28;20040;-83
2024/02/18 11:30:17;;;;;;;3.58;2.70;;;12.80;82.80;;;;;;4954559;28;20035;-83
2024/02/18 11:32:47;;;;;;;3.20;2.67;;;12.80;82.80;;;;;;4954438;28;20027;-91
2024/02/18 11:35:19;;;;;;;2.92;2.60;;;12.80;82.80;;;;;;4952370;28;20263;-81
2024/02/18 11:37:45;;;;;;;3.05;2.35;;;12.80;82.70;;;;;;4950015;28;20114;-83
2024/02/18 11:40:17;;;;;;;2.80;2.50;;;12.80;82.70;;;;;;4972554;28;20055;-93
2024/02/18 11:42:44;;;;;;;4.57;2.85;;;12.80;82.70;;;;;;4968910;28;20053;-93
2024/02/18 11:45:31;;;;;;;4.40;2.50;;;12.80;82.70;;;;;;4969843;28;20195;-92
2024/02/18 11:47:57;;;;;;;3.50;2.70;;;12.80;82.70;;;;;;4939987;28;20106;-93
2024/02/18 11:50:27;;;;;;;4.13;2.40;;;12.80;82.70;;;;;;4954763;28;20046;-94
2024/02/18 11:52:57;;;;;;;3.50;2.60;;;12.80;82.70;;;;;;4954957;28;20066;-81
2024/02/18 11:55:26;;;;;;;3.20;2.47;;;12.80;82.70;;;;;;4966818;28;20054;-95
2024/02/18 11:57:52;;;;;;;2.88;2.25;;;12.80;82.70;;;;;;4936240;28;20031;-83
2024/02/18 12:00:19;;;;;;;3.67;2.28;;;12.80;82.70;;;;;;4942247;28;20131;-91
2024/02/18 12:02:54;;;;;;;4.47;2.42;;;12.80;82.80;;;;;;4970499;23;20317;-96
2024/02/18 12:05:22;;;;;;;2.88;2.42;;;12.80;82.70;;;;;;5144732;23;20126;-92
2024/02/18 12:07:49;;;;;;;3.28;2.50;;;12.80;82.70;;;;;;4940827;29;20024;-84
2024/02/18 12:10:17;;;;;;;3.78;2.55;;;12.80;83.30;;;;;;4942858;29;20035;-84
2024/02/18 12:12:45;;;;;;;3.15;2.40;;;12.80;82.70;;;;;;4946806;29;20019;-92
2024/02/18 12:15:27;;;;;;;2.90;2.22;;;12.80;82.70;;;;;;4950779;29;20068;-92
2024/02/18 12:17:53;;;;;;;4.40;2.40;;;12.80;82.70;;;;;;4954966;28;20037;-83
2024/02/18 12:20:22;;;;;;;3.70;2.33;;;12.80;82.70;;;;;;4950437;28;20019;-83
2024/02/18 12:22:49;;;;;;;4.20;2.55;;;12.80;82.80;;;;;;5038674;23;20020;-82
2024/02/18 12:25:15;;;;;;;3.22;2.22;;;12.80;82.70;;;;;;4957952;28;20111;-94
2024/02/18 12:27:42;;;;;;;3.67;2.40;;;12.80;82.70;;;;;;4947589;28;20063;-95
2024/02/18 12:30:14;;;;;;;3.33;2.55;;;12.80;82.80;;;;;;4933482;29;20039;-86
2024/02/18 12:32:40;;;;;;;3.08;2.40;;;12.80;82.80;;;;;;4950176;29;20039;-91
2024/02/18 12:35:06;;;;;;;2.95;2.40;;;12.80;82.80;;;;;;4940577;29;20035;-91
2024/02/18 12:37:32;;;;;;;3.70;2.70;;;12.80;82.80;;;;;;4956719;28;20089;-91
2024/02/18 12:39:58;;;;;;;3.03;2.58;;;12.80;82.90;;;;;;4956592;28;20019;-90
2024/02/18 12:42:24;;;;;;;4.38;2.75;;;12.80;82.80;;;;;;4951239;29;20114;-82
2024/02/18 12:44:50;;;;;;;2.53;2.17;;;12.80;82.80;;;;;;4941028;29;20015;-95
2024/02/18 12:47:17;;;;;;;3.42;2.30;;;12.70;82.80;;;;;;4955314;29;20072;-83
2024/02/18 12:49:44;;;;;;;3.70;2.60;;;12.80;82.80;;;;;;4955637;29;20030;-91
2024/02/18 12:52:12;;;;;;;3.67;2.70;;;12.80;82.90;;;;;;4941141;29;20102;-82
2024/02/18 12:54:39;;;;;;;3.95;2.47;;;12.70;82.80;;;;;;4940521;29;20040;-95
2024/02/18 12:57:05;;;;;;;3.08;2.25;;;12.80;82.90;;;;;;4958179;28;20034;-92
2024/02/18 12:59:34;;;;;;;3.15;2.20;;;12.80;82.90;;;;;;4951021;28;20028;-91
2024/02/18 13:02:00;;;;;;;3.83;2.38;;;12.70;82.80;;;;;;4953956;28;20065;-91